SBUA/SJL METAR and TAF weather

Enter ICAO airport designator
Station Type Date Time Source
SBUA METAR 2019/10/15 19:00 UTC NOAA

SBUA 151900Z 22004KT 7000 TS VCSH SCT025 FEW030CB 30/25 Q1010


Station Type Date Time Source
SBUA Decoded METAR 2019/10/15 19:00 UTC NOAA

Sao Gabriel Da Cachoeira, Brazil (SBUA) 00-08S 067-05W
Oct 15, 2019 - 03:00 PM EDT / 2019.10.15 1900 UTC
Wind: from the SW (220 degrees) at 5 MPH (4 KT):0
Visibility: 4 mile(s):0
Sky conditions: partly cloudy
Weather: thunder; showers in the vicinity; Cumulonimbus clouds observed
Temperature: 86 F (30 C)
Heat index: 96.8 F (36.0 C):1
Dew Point: 77 F (25 C)
Relative Humidity: 74%
Pressure (altimeter): 29.83 in. Hg (1010 hPa)
ob: SBUA 151900Z 22004KT 7000 TS VCSH SCT025 FEW030CB 30/25 Q1010
cycle: 19

Station Type Date Time Source
SBUA TAF 2015/12/16 12:56 UTC NOAA

SBUA 161000Z 1612/1624 00000KT 8000 BKN008 FEW025TCU TN25/1612Z TX34/ 1618Z
BECMG 1613/1615 32005KT 9999 BKN015
BECMG 1617/1619 06005KT SCT017 FEW025TCU PROB40 1619/1622 4000 TSRA BKN015 FEW025CB
RMK PDZ

Example: see airport list